sensor_id;sensor_type;location;lat;lon;timestamp;P1;durP1;ratioP1;P2;durP2;ratioP2
54145;SDS011;65909;49.422;7.738;2023-02-24T00:02:22;30.85;;;14.02;;
54145;SDS011;65909;49.422;7.738;2023-02-24T00:04:47;28.63;;;12.60;;
54145;SDS011;65909;49.422;7.738;2023-02-24T00:07:16;28.60;;;13.50;;
54145;SDS011;65909;49.422;7.738;2023-02-24T00:09:41;29.58;;;12.35;;
54145;SDS011;65909;49.422;7.738;2023-02-24T00:12:12;24.67;;;12.10;;
54145;SDS011;65909;49.422;7.738;2023-02-24T00:14:41;27.10;;;12.48;;
54145;SDS011;65909;49.422;7.738;2023-02-24T00:17:07;28.60;;;11.68;;
54145;SDS011;65909;49.422;7.738;2023-02-24T00:19:34;24.95;;;10.52;;
54145;SDS011;65909;49.422;7.738;2023-02-24T00:22:01;25.55;;;11.57;;
54145;SDS011;65909;49.422;7.738;2023-02-24T00:24:28;29.92;;;12.65;;
54145;SDS011;65909;49.422;7.738;2023-02-24T00:26:54;24.33;;;11.00;;
54145;SDS011;65909;49.422;7.738;2023-02-24T00:29:21;27.17;;;10.88;;
54145;SDS011;65909;49.422;7.738;2023-02-24T00:31:51;29.63;;;11.73;;
54145;SDS011;65909;49.422;7.738;2023-02-24T00:34:30;29.85;;;12.85;;
54145;SDS011;65909;49.422;7.738;2023-02-24T00:36:58;24.30;;;11.10;;
54145;SDS011;65909;49.422;7.738;2023-02-24T00:39:24;30.98;;;11.95;;
54145;SDS011;65909;49.422;7.738;2023-02-24T00:41:59;26.02;;;11.95;;
54145;SDS011;65909;49.422;7.738;2023-02-24T00:44:33;24.73;;;12.25;;
54145;SDS011;65909;49.422;7.738;2023-02-24T00:47:01;26.58;;;10.85;;
54145;SDS011;65909;49.422;7.738;2023-02-24T00:49:29;27.45;;;12.85;;
54145;SDS011;65909;49.422;7.738;2023-02-24T00:51:54;27.35;;;11.90;;
54145;SDS011;65909;49.422;7.738;2023-02-24T00:54:20;24.65;;;11.73;;
54145;SDS011;65909;49.422;7.738;2023-02-24T00:56:49;29.48;;;11.70;;
54145;SDS011;65909;49.422;7.738;2023-02-24T00:59:15;28.40;;;10.68;;
54145;SDS011;65909;49.422;7.738;2023-02-24T01:01:47;24.05;;;10.27;;
54145;SDS011;65909;49.422;7.738;2023-02-24T01:04:14;29.77;;;12.60;;
54145;SDS011;65909;49.422;7.738;2023-02-24T01:06:42;21.55;;;10.50;;
54145;SDS011;65909;49.422;7.738;2023-02-24T01:09:10;22.42;;;10.25;;
54145;SDS011;65909;49.422;7.738;2023-02-24T01:11:37;23.83;;;10.43;;
54145;SDS011;65909;49.422;7.738;2023-02-24T01:14:23;23.55;;;10.82;;
54145;SDS011;65909;49.422;7.738;2023-02-24T01:16:51;26.70;;;9.70;;
54145;SDS011;65909;49.422;7.738;2023-02-24T01:19:18;20.58;;;8.82;;
54145;SDS011;65909;49.422;7.738;2023-02-24T01:21:45;25.98;;;10.95;;
54145;SDS011;65909;49.422;7.738;2023-02-24T01:24:11;21.33;;;10.02;;
54145;SDS011;65909;49.422;7.738;2023-02-24T01:26:39;25.92;;;11.93;;
54145;SDS011;65909;49.422;7.738;2023-02-24T01:29:05;21.23;;;10.40;;
54145;SDS011;65909;49.422;7.738;2023-02-24T01:31:34;20.50;;;9.48;;
54145;SDS011;65909;49.422;7.738;2023-02-24T01:34:04;25.60;;;10.82;;
54145;SDS011;65909;49.422;7.738;2023-02-24T01:36:31;22.45;;;10.85;;
54145;SDS011;65909;49.422;7.738;2023-02-24T01:38:57;24.65;;;10.95;;
54145;SDS011;65909;49.422;7.738;2023-02-24T01:41:25;24.60;;;10.45;;
54145;SDS011;65909;49.422;7.738;2023-02-24T01:46:33;27.60;;;10.40;;
54145;SDS011;65909;49.422;7.738;2023-02-24T01:49:02;22.33;;;9.95;;
54145;SDS011;65909;49.422;7.738;2023-02-24T01:51:36;22.02;;;8.57;;
54145;SDS011;65909;49.422;7.738;2023-02-24T01:54:06;19.23;;;8.77;;
54145;SDS011;65909;49.422;7.738;2023-02-24T01:56:35;24.15;;;9.82;;
54145;SDS011;65909;49.422;7.738;2023-02-24T01:59:02;21.67;;;8.55;;
54145;SDS011;65909;49.422;7.738;2023-02-24T02:01:28;21.60;;;8.52;;
54145;SDS011;65909;49.422;7.738;2023-02-24T02:03:56;23.55;;;9.05;;
54145;SDS011;65909;49.422;7.738;2023-02-24T02:06:27;21.52;;;8.10;;
54145;SDS011;65909;49.422;7.738;2023-02-24T02:08:53;20.15;;;9.02;;
54145;SDS011;65909;49.422;7.738;2023-02-24T02:11:19;24.20;;;10.05;;
54145;SDS011;65909;49.422;7.738;2023-02-24T02:13:44;20.98;;;9.50;;
54145;SDS011;65909;49.422;7.738;2023-02-24T02:19:13;21.05;;;8.75;;
54145;SDS011;65909;49.422;7.738;2023-02-24T02:22:03;25.60;;;9.57;;
54145;SDS011;65909;49.422;7.738;2023-02-24T02:24:39;21.73;;;9.20;;
54145;SDS011;65909;49.422;7.738;2023-02-24T02:27:21;19.35;;;8.68;;
54145;SDS011;65909;49.422;7.738;2023-02-24T02:33:07;20.60;;;8.50;;
54145;SDS011;65909;49.422;7.738;2023-02-24T02:35:39;22.02;;;9.45;;
54145;SDS011;65909;49.422;7.738;2023-02-24T02:38:13;22.95;;;9.27;;
54145;SDS011;65909;49.422;7.738;2023-02-24T02:43:40;24.20;;;9.50;;
54145;SDS011;65909;49.422;7.738;2023-02-24T02:46:16;23.02;;;8.82;;
54145;SDS011;65909;49.422;7.738;2023-02-24T02:48:58;24.52;;;8.63;;
54145;SDS011;65909;49.422;7.738;2023-02-24T02:51:50;24.15;;;9.25;;
54145;SDS011;65909;49.422;7.738;2023-02-24T02:54:26;24.90;;;9.15;;
54145;SDS011;65909;49.422;7.738;2023-02-24T02:59:34;19.85;;;7.50;;
54145;SDS011;65909;49.422;7.738;2023-02-24T03:02:02;19.52;;;8.80;;
54145;SDS011;65909;49.422;7.738;2023-02-24T03:04:39;17.63;;;7.70;;
54145;SDS011;65909;49.422;7.738;2023-02-24T03:07:10;19.52;;;8.32;;
54145;SDS011;65909;49.422;7.738;2023-02-24T03:09:41;17.83;;;7.57;;
54145;SDS011;65909;49.422;7.738;2023-02-24T03:12:13;16.20;;;7.32;;
54145;SDS011;65909;49.422;7.738;2023-02-24T03:14:43;17.30;;;8.10;;
54145;SDS011;65909;49.422;7.738;2023-02-24T03:17:20;15.70;;;7.03;;
54145;SDS011;65909;49.422;7.738;2023-02-24T03:19:49;16.13;;;7.22;;
54145;SDS011;65909;49.422;7.738;2023-02-24T03:22:20;16.55;;;7.68;;
54145;SDS011;65909;49.422;7.738;2023-02-24T03:24:51;18.48;;;7.28;;
54145;SDS011;65909;49.422;7.738;2023-02-24T03:27:27;17.55;;;7.10;;
54145;SDS011;65909;49.422;7.738;2023-02-24T03:30:18;20.70;;;8.73;;
54145;SDS011;65909;49.422;7.738;2023-02-24T03:33:08;20.15;;;7.82;;
54145;SDS011;65909;49.422;7.738;2023-02-24T03:35:40;19.58;;;8.82;;
54145;SDS011;65909;49.422;7.738;2023-02-24T03:38:06;21.10;;;8.23;;
54145;SDS011;65909;49.422;7.738;2023-02-24T03:40:35;22.00;;;9.65;;
54145;SDS011;65909;49.422;7.738;2023-02-24T03:43:09;20.70;;;8.50;;
54145;SDS011;65909;49.422;7.738;2023-02-24T03:45:42;20.73;;;8.82;;
54145;SDS011;65909;49.422;7.738;2023-02-24T03:48:08;20.27;;;8.45;;
54145;SDS011;65909;49.422;7.738;2023-02-24T03:50:36;21.00;;;9.30;;
54145;SDS011;65909;49.422;7.738;2023-02-24T03:53:10;21.40;;;9.48;;
54145;SDS011;65909;49.422;7.738;2023-02-24T03:56:12;19.92;;;8.55;;
54145;SDS011;65909;49.422;7.738;2023-02-24T04:07:42;17.55;;;7.88;;
54145;SDS011;65909;49.422;7.738;2023-02-24T04:10:20;18.15;;;7.22;;
54145;SDS011;65909;49.422;7.738;2023-02-24T04:13:00;16.60;;;7.88;;
54145;SDS011;65909;49.422;7.738;2023-02-24T04:15:53;20.30;;;7.53;;
54145;SDS011;65909;49.422;7.738;2023-02-24T04:18:26;16.27;;;7.20;;
54145;SDS011;65909;49.422;7.738;2023-02-24T04:20:55;15.80;;;7.88;;
54145;SDS011;65909;49.422;7.738;2023-02-24T04:23:34;15.60;;;6.93;;
54145;SDS011;65909;49.422;7.738;2023-02-24T04:26:04;18.40;;;7.80;;
54145;SDS011;65909;49.422;7.738;2023-02-24T04:28:32;18.25;;;7.60;;
54145;SDS011;65909;49.422;7.738;2023-02-24T04:31:00;19.02;;;7.35;;
54145;SDS011;65909;49.422;7.738;2023-02-24T04:33:30;18.10;;;8.25;;
54145;SDS011;65909;49.422;7.738;2023-02-24T04:35:57;19.80;;;9.18;;
54145;SDS011;65909;49.422;7.738;2023-02-24T04:38:22;16.83;;;8.30;;
54145;SDS011;65909;49.422;7.738;2023-02-24T04:40:48;19.73;;;8.05;;
54145;SDS011;65909;49.422;7.738;2023-02-24T04:43:13;18.27;;;7.72;;
54145;SDS011;65909;49.422;7.738;2023-02-24T04:45:39;20.30;;;7.45;;
54145;SDS011;65909;49.422;7.738;2023-02-24T04:48:05;21.45;;;8.93;;
54145;SDS011;65909;49.422;7.738;2023-02-24T04:50:36;21.67;;;9.07;;
54145;SDS011;65909;49.422;7.738;2023-02-24T04:53:04;16.20;;;8.38;;
54145;SDS011;65909;49.422;7.738;2023-02-24T04:55:37;20.30;;;7.43;;
54145;SDS011;65909;49.422;7.738;2023-02-24T04:58:04;24.80;;;9.23;;
54145;SDS011;65909;49.422;7.738;2023-02-24T05:00:37;20.95;;;8.93;;
54145;SDS011;65909;49.422;7.738;2023-02-24T05:03:05;23.63;;;9.73;;
54145;SDS011;65909;49.422;7.738;2023-02-24T05:05:32;20.08;;;8.82;;
54145;SDS011;65909;49.422;7.738;2023-02-24T05:08:07;20.58;;;8.32;;
54145;SDS011;65909;49.422;7.738;2023-02-24T05:10:35;25.08;;;7.78;;
54145;SDS011;65909;49.422;7.738;2023-02-24T05:13:06;20.33;;;8.70;;
54145;SDS011;65909;49.422;7.738;2023-02-24T05:15:33;26.42;;;9.35;;
54145;SDS011;65909;49.422;7.738;2023-02-24T05:18:03;21.88;;;8.70;;
54145;SDS011;65909;49.422;7.738;2023-02-24T05:20:36;18.17;;;7.85;;
54145;SDS011;65909;49.422;7.738;2023-02-24T05:23:25;21.50;;;8.20;;
54145;SDS011;65909;49.422;7.738;2023-02-24T05:25:51;20.60;;;8.02;;
54145;SDS011;65909;49.422;7.738;2023-02-24T05:28:19;23.25;;;8.80;;
54145;SDS011;65909;49.422;7.738;2023-02-24T05:30:47;19.55;;;9.20;;
54145;SDS011;65909;49.422;7.738;2023-02-24T05:33:16;21.13;;;9.20;;
54145;SDS011;65909;49.422;7.738;2023-02-24T05:35:45;19.85;;;8.68;;
54145;SDS011;65909;49.422;7.738;2023-02-24T05:38:12;23.83;;;8.77;;
54145;SDS011;65909;49.422;7.738;2023-02-24T05:40:38;20.05;;;9.30;;
54145;SDS011;65909;49.422;7.738;2023-02-24T05:43:10;21.50;;;9.68;;
54145;SDS011;65909;49.422;7.738;2023-02-24T05:45:39;20.45;;;8.45;;
54145;SDS011;65909;49.422;7.738;2023-02-24T05:48:07;22.73;;;9.65;;
54145;SDS011;65909;49.422;7.738;2023-02-24T05:50:32;19.08;;;8.45;;
54145;SDS011;65909;49.422;7.738;2023-02-24T05:52:58;20.50;;;9.05;;
54145;SDS011;65909;49.422;7.738;2023-02-24T05:55:23;23.40;;;9.85;;
54145;SDS011;65909;49.422;7.738;2023-02-24T05:57:49;21.67;;;10.07;;
54145;SDS011;65909;49.422;7.738;2023-02-24T06:00:14;24.15;;;10.57;;
54145;SDS011;65909;49.422;7.738;2023-02-24T06:02:41;27.02;;;10.48;;
54145;SDS011;65909;49.422;7.738;2023-02-24T06:05:16;26.60;;;12.57;;
54145;SDS011;65909;49.422;7.738;2023-02-24T06:07:55;25.63;;;11.88;;
54145;SDS011;65909;49.422;7.738;2023-02-24T06:10:28;27.25;;;10.52;;
54145;SDS011;65909;49.422;7.738;2023-02-24T06:12:55;29.80;;;12.68;;
54145;SDS011;65909;49.422;7.738;2023-02-24T06:15:21;29.38;;;12.73;;
54145;SDS011;65909;49.422;7.738;2023-02-24T06:17:46;31.02;;;12.90;;
54145;SDS011;65909;49.422;7.738;2023-02-24T06:20:13;31.23;;;12.80;;
54145;SDS011;65909;49.422;7.738;2023-02-24T06:22:40;27.95;;;12.80;;
54145;SDS011;65909;49.422;7.738;2023-02-24T06:25:08;32.45;;;12.55;;
54145;SDS011;65909;49.422;7.738;2023-02-24T06:27:38;34.20;;;13.23;;
54145;SDS011;65909;49.422;7.738;2023-02-24T06:30:03;32.00;;;12.75;;
54145;SDS011;65909;49.422;7.738;2023-02-24T06:32:34;33.92;;;14.82;;
54145;SDS011;65909;49.422;7.738;2023-02-24T06:35:00;33.53;;;14.63;;
54145;SDS011;65909;49.422;7.738;2023-02-24T06:37:26;35.63;;;13.50;;
54145;SDS011;65909;49.422;7.738;2023-02-24T06:39:52;31.52;;;13.50;;
54145;SDS011;65909;49.422;7.738;2023-02-24T06:42:17;30.30;;;14.07;;
54145;SDS011;65909;49.422;7.738;2023-02-24T06:44:43;30.08;;;13.55;;
54145;SDS011;65909;49.422;7.738;2023-02-24T06:47:10;36.15;;;14.80;;
54145;SDS011;65909;49.422;7.738;2023-02-24T06:49:37;32.53;;;14.05;;
54145;SDS011;65909;49.422;7.738;2023-02-24T06:52:02;31.80;;;14.00;;
54145;SDS011;65909;49.422;7.738;2023-02-24T06:54:28;33.90;;;14.02;;
54145;SDS011;65909;49.422;7.738;2023-02-24T06:56:54;34.85;;;14.98;;
54145;SDS011;65909;49.422;7.738;2023-02-24T06:59:21;37.15;;;14.43;;
54145;SDS011;65909;49.422;7.738;2023-02-24T07:01:52;36.85;;;15.82;;
54145;SDS011;65909;49.422;7.738;2023-02-24T07:04:18;31.92;;;15.50;;
54145;SDS011;65909;49.422;7.738;2023-02-24T07:06:46;35.70;;;14.00;;
54145;SDS011;65909;49.422;7.738;2023-02-24T07:09:16;36.28;;;15.15;;
54145;SDS011;65909;49.422;7.738;2023-02-24T07:11:44;32.50;;;15.20;;
54145;SDS011;65909;49.422;7.738;2023-02-24T07:14:12;39.53;;;14.68;;
54145;SDS011;65909;49.422;7.738;2023-02-24T07:16:38;34.65;;;14.23;;
54145;SDS011;65909;49.422;7.738;2023-02-24T07:19:10;30.27;;;12.55;;
54145;SDS011;65909;49.422;7.738;2023-02-24T07:21:38;34.72;;;14.68;;
54145;SDS011;65909;49.422;7.738;2023-02-24T07:24:11;40.67;;;15.27;;
54145;SDS011;65909;49.422;7.738;2023-02-24T07:26:38;32.92;;;13.73;;
54145;SDS011;65909;49.422;7.738;2023-02-24T07:29:09;36.42;;;14.00;;
54145;SDS011;65909;49.422;7.738;2023-02-24T07:31:35;35.30;;;13.85;;
54145;SDS011;65909;49.422;7.738;2023-02-24T07:34:01;34.88;;;15.25;;
54145;SDS011;65909;49.422;7.738;2023-02-24T07:36:26;34.65;;;14.02;;
54145;SDS011;65909;49.422;7.738;2023-02-24T07:38:54;39.78;;;15.13;;
54145;SDS011;65909;49.422;7.738;2023-02-24T07:41:25;34.13;;;14.07;;
54145;SDS011;65909;49.422;7.738;2023-02-24T07:43:52;32.05;;;13.98;;
54145;SDS011;65909;49.422;7.738;2023-02-24T07:46:22;30.75;;;13.52;;
54145;SDS011;65909;49.422;7.738;2023-02-24T07:48:50;30.02;;;12.50;;
54145;SDS011;65909;49.422;7.738;2023-02-24T07:51:18;30.58;;;13.13;;
54145;SDS011;65909;49.422;7.738;2023-02-24T07:53:52;27.52;;;11.82;;
54145;SDS011;65909;49.422;7.738;2023-02-24T07:56:20;28.08;;;14.00;;
54145;SDS011;65909;49.422;7.738;2023-02-24T07:58:51;31.40;;;13.48;;
54145;SDS011;65909;49.422;7.738;2023-02-24T08:01:23;28.70;;;12.38;;
54145;SDS011;65909;49.422;7.738;2023-02-24T08:03:52;30.90;;;12.23;;
54145;SDS011;65909;49.422;7.738;2023-02-24T08:09:03;27.27;;;11.95;;
54145;SDS011;65909;49.422;7.738;2023-02-24T08:11:49;24.92;;;10.93;;
54145;SDS011;65909;49.422;7.738;2023-02-24T08:14:19;23.42;;;10.90;;
54145;SDS011;65909;49.422;7.738;2023-02-24T08:16:49;26.73;;;10.52;;
54145;SDS011;65909;49.422;7.738;2023-02-24T08:19:17;26.08;;;11.85;;
54145;SDS011;65909;49.422;7.738;2023-02-24T08:21:45;25.30;;;11.35;;
54145;SDS011;65909;49.422;7.738;2023-02-24T08:24:17;25.58;;;10.85;;
54145;SDS011;65909;49.422;7.738;2023-02-24T08:29:31;23.20;;;10.15;;
54145;SDS011;65909;49.422;7.738;2023-02-24T08:35:11;23.75;;;9.90;;
54145;SDS011;65909;49.422;7.738;2023-02-24T08:37:39;22.80;;;10.00;;
54145;SDS011;65909;49.422;7.738;2023-02-24T08:40:11;25.42;;;10.45;;
54145;SDS011;65909;49.422;7.738;2023-02-24T08:42:57;24.48;;;10.23;;
54145;SDS011;65909;49.422;7.738;2023-02-24T08:45:25;19.98;;;9.15;;
54145;SDS011;65909;49.422;7.738;2023-02-24T08:47:53;24.90;;;10.93;;
54145;SDS011;65909;49.422;7.738;2023-02-24T08:50:24;22.48;;;9.75;;
54145;SDS011;65909;49.422;7.738;2023-02-24T08:52:56;22.13;;;10.15;;
54145;SDS011;65909;49.422;7.738;2023-02-24T08:55:23;20.58;;;9.00;;
54145;SDS011;65909;49.422;7.738;2023-02-24T08:57:54;21.63;;;9.35;;
54145;SDS011;65909;49.422;7.738;2023-02-24T09:00:25;20.50;;;9.25;;
54145;SDS011;65909;49.422;7.738;2023-02-24T09:03:13;21.77;;;9.52;;
54145;SDS011;65909;49.422;7.738;2023-02-24T09:06:01;21.20;;;10.27;;
54145;SDS011;65909;49.422;7.738;2023-02-24T09:08:33;20.70;;;8.40;;
54145;SDS011;65909;49.422;7.738;2023-02-24T09:11:02;21.48;;;9.52;;
54145;SDS011;65909;49.422;7.738;2023-02-24T09:13:32;20.48;;;8.50;;
54145;SDS011;65909;49.422;7.738;2023-02-24T09:16:02;18.83;;;8.63;;
54145;SDS011;65909;49.422;7.738;2023-02-24T09:18:28;19.23;;;9.27;;
54145;SDS011;65909;49.422;7.738;2023-02-24T09:20:57;18.20;;;8.55;;
54145;SDS011;65909;49.422;7.738;2023-02-24T09:23:40;19.02;;;8.48;;
54145;SDS011;65909;49.422;7.738;2023-02-24T09:26:10;18.23;;;8.48;;
54145;SDS011;65909;49.422;7.738;2023-02-24T09:28:37;19.85;;;8.48;;
54145;SDS011;65909;49.422;7.738;2023-02-24T09:31:12;17.85;;;8.32;;
54145;SDS011;65909;49.422;7.738;2023-02-24T09:33:41;14.70;;;7.45;;
54145;SDS011;65909;49.422;7.738;2023-02-24T09:36:14;17.45;;;6.75;;
54145;SDS011;65909;49.422;7.738;2023-02-24T09:38:56;17.10;;;7.63;;
54145;SDS011;65909;49.422;7.738;2023-02-24T09:41:36;19.13;;;8.13;;
54145;SDS011;65909;49.422;7.738;2023-02-24T09:46:59;16.25;;;7.88;;
54145;SDS011;65909;49.422;7.738;2023-02-24T09:50:20;14.07;;;7.38;;
54145;SDS011;65909;49.422;7.738;2023-02-24T09:52:48;13.93;;;6.68;;
54145;SDS011;65909;49.422;7.738;2023-02-24T10:04:35;12.15;;;5.90;;
54145;SDS011;65909;49.422;7.738;2023-02-24T10:10:03;13.93;;;6.30;;
54145;SDS011;65909;49.422;7.738;2023-02-24T10:13:12;9.70;;;5.70;;
54145;SDS011;65909;49.422;7.738;2023-02-24T10:15:54;13.05;;;6.53;;
54145;SDS011;65909;49.422;7.738;2023-02-24T10:18:28;13.05;;;6.00;;
54145;SDS011;65909;49.422;7.738;2023-02-24T10:26:27;12.00;;;6.88;;
54145;SDS011;65909;49.422;7.738;2023-02-24T10:29:06;14.02;;;6.57;;
54145;SDS011;65909;49.422;7.738;2023-02-24T10:34:15;14.85;;;7.57;;
54145;SDS011;65909;49.422;7.738;2023-02-24T10:36:50;14.73;;;7.53;;
54145;SDS011;65909;49.422;7.738;2023-02-24T10:39:17;17.90;;;7.82;;
54145;SDS011;65909;49.422;7.738;2023-02-24T10:41:55;12.48;;;8.05;;
54145;SDS011;65909;49.422;7.738;2023-02-24T10:44:39;11.30;;;6.15;;
54145;SDS011;65909;49.422;7.738;2023-02-24T10:47:16;13.45;;;7.10;;
54145;SDS011;65909;49.422;7.738;2023-02-24T10:49:47;13.15;;;7.00;;
54145;SDS011;65909;49.422;7.738;2023-02-24T10:52:30;13.27;;;7.15;;
54145;SDS011;65909;49.422;7.738;2023-02-24T10:55:08;13.75;;;7.15;;
54145;SDS011;65909;49.422;7.738;2023-02-24T10:57:52;13.02;;;8.43;;
54145;SDS011;65909;49.422;7.738;2023-02-24T11:00:40;16.05;;;7.70;;
54145;SDS011;65909;49.422;7.738;2023-02-24T11:03:27;15.60;;;8.73;;
54145;SDS011;65909;49.422;7.738;2023-02-24T11:08:58;17.08;;;8.00;;
54145;SDS011;65909;49.422;7.738;2023-02-24T11:11:42;16.77;;;8.35;;
54145;SDS011;65909;49.422;7.738;2023-02-24T11:14:26;16.27;;;8.93;;
54145;SDS011;65909;49.422;7.738;2023-02-24T11:17:20;18.27;;;9.45;;
54145;SDS011;65909;49.422;7.738;2023-02-24T11:19:54;14.88;;;7.47;;
54145;SDS011;65909;49.422;7.738;2023-02-24T11:22:26;15.30;;;7.57;;
54145;SDS011;65909;49.422;7.738;2023-02-24T11:25:02;12.05;;;7.03;;
54145;SDS011;65909;49.422;7.738;2023-02-24T11:27:32;16.27;;;6.90;;
54145;SDS011;65909;49.422;7.738;2023-02-24T11:35:41;15.73;;;6.40;;
54145;SDS011;65909;49.422;7.738;2023-02-24T11:38:32;12.10;;;6.35;;
54145;SDS011;65909;49.422;7.738;2023-02-24T11:46:38;16.08;;;7.80;;
54145;SDS011;65909;49.422;7.738;2023-02-24T11:49:17;17.48;;;7.75;;
54145;SDS011;65909;49.422;7.738;2023-02-24T11:51:50;14.35;;;7.05;;
54145;SDS011;65909;49.422;7.738;2023-02-24T11:54:16;13.20;;;7.32;;
54145;SDS011;65909;49.422;7.738;2023-02-24T11:56:43;16.65;;;7.57;;
54145;SDS011;65909;49.422;7.738;2023-02-24T12:01:51;13.13;;;6.70;;
54145;SDS011;65909;49.422;7.738;2023-02-24T12:04:37;13.10;;;6.75;;
54145;SDS011;65909;49.422;7.738;2023-02-24T12:15:55;14.57;;;7.00;;
54145;SDS011;65909;49.422;7.738;2023-02-24T12:18:37;15.57;;;6.35;;
54145;SDS011;65909;49.422;7.738;2023-02-24T12:21:07;14.27;;;6.82;;
54145;SDS011;65909;49.422;7.738;2023-02-24T12:23:45;14.70;;;7.25;;
54145;SDS011;65909;49.422;7.738;2023-02-24T12:35:43;11.57;;;5.53;;
54145;SDS011;65909;49.422;7.738;2023-02-24T12:38:29;12.10;;;5.82;;
54145;SDS011;65909;49.422;7.738;2023-02-24T12:44:06;13.95;;;6.00;;
54145;SDS011;65909;49.422;7.738;2023-02-24T12:46:42;14.27;;;5.22;;
54145;SDS011;65909;49.422;7.738;2023-02-24T13:00:12;9.63;;;5.10;;
54145;SDS011;65909;49.422;7.738;2023-02-24T13:02:51;11.52;;;5.53;;
54145;SDS011;65909;49.422;7.738;2023-02-24T13:05:32;8.80;;;5.22;;
54145;SDS011;65909;49.422;7.738;2023-02-24T13:08:14;12.27;;;6.15;;
54145;SDS011;65909;49.422;7.738;2023-02-24T13:11:06;9.48;;;5.57;;
54145;SDS011;65909;49.422;7.738;2023-02-24T13:13:48;9.77;;;5.07;;
54145;SDS011;65909;49.422;7.738;2023-02-24T13:16:44;8.77;;;4.80;;
54145;SDS011;65909;49.422;7.738;2023-02-24T13:22:44;10.52;;;5.55;;
54145;SDS011;65909;49.422;7.738;2023-02-24T13:24:40;11.20;;;5.50;;
54145;SDS011;65909;49.422;7.738;2023-02-24T13:27:20;10.20;;;5.28;;
54145;SDS011;65909;49.422;7.738;2023-02-24T13:29:56;11.85;;;5.75;;
54145;SDS011;65909;49.422;7.738;2023-02-24T13:32:35;12.75;;;5.80;;
54145;SDS011;65909;49.422;7.738;2023-02-24T13:37:41;13.80;;;5.38;;
54145;SDS011;65909;49.422;7.738;2023-02-24T13:42:40;12.63;;;6.20;;
54145;SDS011;65909;49.422;7.738;2023-02-24T13:53:28;11.68;;;5.40;;
54145;SDS011;65909;49.422;7.738;2023-02-24T14:01:46;12.98;;;5.75;;
54145;SDS011;65909;49.422;7.738;2023-02-24T14:04:24;12.32;;;5.82;;
54145;SDS011;65909;49.422;7.738;2023-02-24T14:06:53;12.20;;;5.30;;
54145;SDS011;65909;49.422;7.738;2023-02-24T14:09:23;11.00;;;5.05;;
54145;SDS011;65909;49.422;7.738;2023-02-24T14:11:56;10.93;;;4.95;;
54145;SDS011;65909;49.422;7.738;2023-02-24T14:14:28;12.98;;;5.63;;
54145;SDS011;65909;49.422;7.738;2023-02-24T14:16:55;15.25;;;5.22;;
54145;SDS011;65909;49.422;7.738;2023-02-24T14:19:20;13.27;;;5.05;;
54145;SDS011;65909;49.422;7.738;2023-02-24T14:21:53;11.77;;;5.10;;
54145;SDS011;65909;49.422;7.738;2023-02-24T14:24:20;10.75;;;5.32;;
54145;SDS011;65909;49.422;7.738;2023-02-24T14:26:49;8.45;;;4.78;;
54145;SDS011;65909;49.422;7.738;2023-02-24T14:29:37;10.00;;;4.68;;
54145;SDS011;65909;49.422;7.738;2023-02-24T14:32:01;9.98;;;4.88;;
54145;SDS011;65909;49.422;7.738;2023-02-24T14:34:28;16.33;;;4.90;;
54145;SDS011;65909;49.422;7.738;2023-02-24T14:36:56;10.18;;;4.82;;
54145;SDS011;65909;49.422;7.738;2023-02-24T14:39:23;9.23;;;4.60;;
54145;SDS011;65909;49.422;7.738;2023-02-24T14:42:01;9.13;;;4.45;;
54145;SDS011;65909;49.422;7.738;2023-02-24T14:44:38;8.52;;;4.30;;
54145;SDS011;65909;49.422;7.738;2023-02-24T14:47:13;11.10;;;4.30;;
54145;SDS011;65909;49.422;7.738;2023-02-24T14:49:39;8.75;;;4.00;;
54145;SDS011;65909;49.422;7.738;2023-02-24T14:52:14;8.07;;;4.68;;
54145;SDS011;65909;49.422;7.738;2023-02-24T14:54:48;10.15;;;4.82;;
54145;SDS011;65909;49.422;7.738;2023-02-24T14:57:22;9.82;;;5.43;;
54145;SDS011;65909;49.422;7.738;2023-02-24T14:59:52;9.52;;;4.20;;
54145;SDS011;65909;49.422;7.738;2023-02-24T15:02:23;7.55;;;4.00;;
54145;SDS011;65909;49.422;7.738;2023-02-24T15:04:55;9.88;;;4.72;;
54145;SDS011;65909;49.422;7.738;2023-02-24T15:07:23;12.15;;;4.72;;
54145;SDS011;65909;49.422;7.738;2023-02-24T15:09:50;8.60;;;4.60;;
54145;SDS011;65909;49.422;7.738;2023-02-24T15:14:56;10.25;;;4.60;;
54145;SDS011;65909;49.422;7.738;2023-02-24T15:17:26;8.02;;;4.10;;
54145;SDS011;65909;49.422;7.738;2023-02-24T15:20:01;12.05;;;4.28;;
54145;SDS011;65909;49.422;7.738;2023-02-24T15:22:32;11.90;;;5.10;;
54145;SDS011;65909;49.422;7.738;2023-02-24T15:27:57;7.93;;;4.22;;
54145;SDS011;65909;49.422;7.738;2023-02-24T15:30:26;6.28;;;3.45;;
54145;SDS011;65909;49.422;7.738;2023-02-24T15:33:04;6.70;;;3.55;;
54145;SDS011;65909;49.422;7.738;2023-02-24T15:35:36;7.88;;;3.72;;
54145;SDS011;65909;49.422;7.738;2023-02-24T15:38:12;6.95;;;3.72;;
54145;SDS011;65909;49.422;7.738;2023-02-24T15:40:57;9.93;;;3.75;;
54145;SDS011;65909;49.422;7.738;2023-02-24T15:45:58;7.35;;;3.83;;
54145;SDS011;65909;49.422;7.738;2023-02-24T15:48:24;8.68;;;4.35;;
54145;SDS011;65909;49.422;7.738;2023-02-24T15:50:54;8.00;;;3.55;;
54145;SDS011;65909;49.422;7.738;2023-02-24T15:53:23;8.55;;;3.78;;
54145;SDS011;65909;49.422;7.738;2023-02-24T15:55:48;6.47;;;3.70;;
54145;SDS011;65909;49.422;7.738;2023-02-24T15:58:17;8.70;;;4.15;;
54145;SDS011;65909;49.422;7.738;2023-02-24T16:00:46;7.38;;;3.45;;
54145;SDS011;65909;49.422;7.738;2023-02-24T16:03:16;10.98;;;4.20;;
54145;SDS011;65909;49.422;7.738;2023-02-24T16:05:41;8.95;;;4.38;;
54145;SDS011;65909;49.422;7.738;2023-02-24T16:08:11;8.10;;;4.00;;
54145;SDS011;65909;49.422;7.738;2023-02-24T16:10:41;13.02;;;3.92;;
54145;SDS011;65909;49.422;7.738;2023-02-24T16:13:07;11.32;;;4.53;;
54145;SDS011;65909;49.422;7.738;2023-02-24T16:15:42;12.18;;;4.60;;
54145;SDS011;65909;49.422;7.738;2023-02-24T16:18:11;10.10;;;4.50;;
54145;SDS011;65909;49.422;7.738;2023-02-24T16:20:42;10.50;;;4.10;;
54145;SDS011;65909;49.422;7.738;2023-02-24T16:23:09;10.10;;;3.95;;
54145;SDS011;65909;49.422;7.738;2023-02-24T16:25:39;10.95;;;4.68;;
54145;SDS011;65909;49.422;7.738;2023-02-24T16:28:13;14.07;;;4.57;;
54145;SDS011;65909;49.422;7.738;2023-02-24T16:30:40;8.63;;;4.00;;
54145;SDS011;65909;49.422;7.738;2023-02-24T16:33:08;6.97;;;3.47;;
54145;SDS011;65909;49.422;7.738;2023-02-24T16:35:36;6.78;;;3.28;;
54145;SDS011;65909;49.422;7.738;2023-02-24T16:38:02;7.13;;;3.95;;
54145;SDS011;65909;49.422;7.738;2023-02-24T16:40:30;6.28;;;3.28;;
54145;SDS011;65909;49.422;7.738;2023-02-24T16:43:01;8.15;;;3.78;;
54145;SDS011;65909;49.422;7.738;2023-02-24T16:45:28;5.68;;;3.10;;
54145;SDS011;65909;49.422;7.738;2023-02-24T16:47:55;6.53;;;2.25;;
54145;SDS011;65909;49.422;7.738;2023-02-24T16:50:33;5.18;;;2.72;;
54145;SDS011;65909;49.422;7.738;2023-02-24T16:53:03;5.22;;;2.72;;
54145;SDS011;65909;49.422;7.738;2023-02-24T16:55:29;4.78;;;2.70;;
54145;SDS011;65909;49.422;7.738;2023-02-24T16:57:55;4.57;;;2.50;;
54145;SDS011;65909;49.422;7.738;2023-02-24T17:00:20;4.93;;;2.75;;
54145;SDS011;65909;49.422;7.738;2023-02-24T17:02:47;5.07;;;2.47;;
54145;SDS011;65909;49.422;7.738;2023-02-24T17:05:17;4.20;;;2.30;;
54145;SDS011;65909;49.422;7.738;2023-02-24T17:07:50;4.28;;;2.22;;
54145;SDS011;65909;49.422;7.738;2023-02-24T17:10:17;5.45;;;2.42;;
54145;SDS011;65909;49.422;7.738;2023-02-24T17:12:44;5.57;;;2.40;;
54145;SDS011;65909;49.422;7.738;2023-02-24T17:15:11;4.57;;;2.30;;